Time,TemperatureF,DewpointF,PressureIn,WindDirection,WindDirectionDegrees,WindSpeedMPH,WindSpeedGustMPH,Humidity,HourlyPrecipIn,Conditions,Clouds,dailyrainin,SoftwareType,DateUTC
2013-08-02 00:00:00,68.8,66.4,29.83,SSE,166,6.9,6.9,92,0.00,OVC,,0.00,WeatherDisplay:10.37,2013-08-02 04:00:00,
2013-08-02 00:01:00,68.7,66.3,29.83,SSE,165,9.0,9.0,92,0.00,OVC,,0.00,WeatherDisplay:10.37,2013-08-02 04:01:00,
2013-08-02 00:02:00,68.7,66.3,29.83,SSE,153,9.2,9.2,92,0.00,-RA,,0.00,WeatherDisplay:10.37,2013-08-02 04:02:00,
2013-08-02 00:07:00,68.8,66.4,29.83,SSE,163,9.2,9.2,92,0.00,-RA,,0.00,WeatherDisplay:10.37,2013-08-02 04:07:00,
2013-08-02 00:12:00,68.9,66.2,29.82,SSE,150,9.2,9.2,91,0.00,-RA,,0.00,WeatherDisplay:10.37,2013-08-02 04:12:00,
2013-08-02 00:16:00,68.9,66.5,29.82,SSE,155,7.0,7.0,92,0.00,-RA,,0.00,WeatherDisplay:10.37,2013-08-02 04:16:00,
2013-08-02 00:21:00,69.0,66.6,29.82,SSE,157,6.0,6.0,92,0.00,-RA,,0.00,WeatherDisplay:10.37,2013-08-02 04:21:00,
2013-08-02 00:27:00,69.1,66.7,29.82,SSE,163,10.4,10.4,92,0.00,-RA,,0.00,WeatherDisplay:10.37,2013-08-02 04:27:00,
2013-08-02 00:32:00,69.1,66.7,29.82,SSE,154,11.5,11.5,92,0.00,-RA,,0.00,WeatherDisplay:10.37,2013-08-02 04:32:00,
2013-08-02 00:37:00,69.2,66.8,29.82,SSW,207,9.2,9.2,92,0.00,-RA,,0.00,WeatherDisplay:10.37,2013-08-02 04:37:00,
2013-08-02 00:42:00,69.1,66.7,29.82,South,186,9.2,9.2,92,0.00,-RA,,0.00,WeatherDisplay:10.37,2013-08-02 04:42:00,
2013-08-02 00:47:00,69.0,66.6,29.82,South,171,8.1,8.1,92,0.00,-RA,,0.00,WeatherDisplay:10.37,2013-08-02 04:47:00,
2013-08-02 00:52:00,69.0,66.6,29.82,South,169,8.1,8.1,92,0.00,-RA,,0.00,WeatherDisplay:10.37,2013-08-02 04:52:00,
2013-08-02 00:57:00,68.9,66.5,29.81,SSE,156,6.9,6.9,92,0.00,-RA,,0.00,WeatherDisplay:10.37,2013-08-02 04:57:00,
2013-08-02 01:02:00,68.8,66.4,29.81,SSE,162,11.5,11.5,92,0.00,OVC,,0.00,WeatherDisplay:10.37,2013-08-02 05:02:00,
2013-08-02 01:07:00,69.6,67.5,29.81,SSE,165,5.0,5.0,93,0.00,OVC,,0.00,WeatherDisplay:10.37,2013-08-02 05:07:00,
2013-08-02 01:12:00,69.5,67.4,29.80,SSE,168,6.9,6.9,93,0.00,OVC,,0.00,WeatherDisplay:10.37,2013-08-02 05:12:00,
2013-08-02 01:17:00,69.6,67.8,29.80,SSE,161,8.1,8.1,94,0.00,OVC,,0.00,WeatherDisplay:10.37,2013-08-02 05:17:00,
2013-08-02 01:22:00,69.6,67.8,29.80,SSE,161,5.8,5.8,94,0.00,OVC,,0.00,WeatherDisplay:10.37,2013-08-02 05:22:00,
2013-08-02 01:27:00,69.7,67.9,29.79,SSE,161,4.0,4.0,94,0.00,OVC,,0.00,WeatherDisplay:10.37,2013-08-02 05:27:00,
2013-08-02 01:32:00,69.7,67.9,29.79,South,169,4.6,4.6,94,0.00,OVC,,0.00,WeatherDisplay:10.37,2013-08-02 05:32:00,
2013-08-02 01:37:00,69.7,67.9,29.79,SE,144,5.0,5.0,94,0.00,OVC,,0.00,WeatherDisplay:10.37,2013-08-02 05:37:00,
2013-08-02 01:42:00,69.7,67.6,29.78,SSE,155,6.9,6.9,93,0.00,OVC,,0.00,WeatherDisplay:10.37,2013-08-02 05:42:00,
2013-08-02 01:47:00,69.8,68.0,29.78,SSE,168,4.0,4.0,94,0.00,OVC,,0.00,WeatherDisplay:10.37,2013-08-02 05:47:00,
2013-08-02 01:52:00,69.8,68.0,29.78,SSE,156,6.0,6.0,94,0.00,OVC,,0.00,WeatherDisplay:10.37,2013-08-02 05:52:00,
2013-08-02 01:57:00,69.8,68.0,29.78,South,172,8.1,8.1,94,0.00,OVC,,0.00,WeatherDisplay:10.37,2013-08-02 05:57:00,
2013-08-02 02:02:00,69.9,68.1,29.78,SSE,156,4.6,4.6,94,0.00,OVC,,0.00,WeatherDisplay:10.37,2013-08-02 06:02:00,
2013-08-02 02:07:00,69.9,68.1,29.77,South,183,4.6,4.6,94,0.00,OVC,,0.00,WeatherDisplay:10.37,2013-08-02 06:07:00,
2013-08-02 02:12:00,69.9,68.1,29.77,SSE,155,3.5,3.5,94,0.00,OVC,,0.00,WeatherDisplay:10.37,2013-08-02 06:12:00,
2013-08-02 02:17:00,70.0,68.2,29.77,SE,128,3.5,3.5,94,0.00,OVC,,0.00,WeatherDisplay:10.37,2013-08-02 06:17:00,
2013-08-02 02:22:00,70.0,68.2,29.77,SSE,164,3.5,3.5,94,0.00,OVC,,0.00,WeatherDisplay:10.37,2013-08-02 06:22:00,
2013-08-02 02:27:00,69.9,68.1,29.76,South,186,3.5,3.5,94,0.00,OVC,,0.00,WeatherDisplay:10.37,2013-08-02 06:27:00,
2013-08-02 02:32:00,69.8,68.0,29.76,SSW,199,3.5,3.5,94,0.00,OVC,,0.00,WeatherDisplay:10.37,2013-08-02 06:32:00,
2013-08-02 02:37:00,69.7,67.9,29.76,SE,138,4.6,4.6,94,0.00,OVC,,0.00,WeatherDisplay:10.37,2013-08-02 06:37:00,
2013-08-02 02:42:00,69.7,67.9,29.76,South,171,4.0,4.0,94,0.00,OVC,,0.00,WeatherDisplay:10.37,2013-08-02 06:42:00,
2013-08-02 02:47:00,69.6,68.1,29.76,South,171,4.0,4.0,95,0.00,OVC,,0.00,WeatherDisplay:10.37,2013-08-02 06:47:00,
2013-08-02 02:52:00,69.5,68.0,29.76,SSE,150,2.3,2.3,95,0.00,OVC,,0.00,WeatherDisplay:10.37,2013-08-02 06:52:00,
2013-08-02 02:57:00,69.5,68.0,29.76,SSE,167,3.5,3.5,95,0.00,OVC,,0.00,WeatherDisplay:10.37,2013-08-02 06:57:00,
2013-08-02 03:02:00,69.5,68.3,29.76,SW,214,3.5,3.5,96,0.00,OVC,,0.00,WeatherDisplay:10.37,2013-08-02 07:02:00,
2013-08-02 03:07:00,69.4,68.2,29.76,SW,221,1.1,1.1,96,0.00,OVC,,0.00,WeatherDisplay:10.37,2013-08-02 07:07:00,
2013-08-02 03:12:00,69.3,68.1,29.76,SSE,157,1.1,1.1,96,0.00,OVC,,0.00,WeatherDisplay:10.37,2013-08-02 07:12:00,
2013-08-02 03:17:00,69.3,68.1,29.76,SE,144,0.0,0.0,96,0.00,OVC,,0.00,WeatherDisplay:10.37,2013-08-02 07:17:00,
2013-08-02 03:22:00,69.2,68.0,29.76,SSE,148,0.0,0.0,96,0.00,OVC,,0.00,WeatherDisplay:10.37,2013-08-02 07:22:00,
2013-08-02 03:27:00,69.2,68.0,29.76,SE,146,0.0,0.0,96,0.00,OVC,,0.00,WeatherDisplay:10.37,2013-08-02 07:27:00,
2013-08-02 10:27:00,76.6,64.4,29.83,NNW,344,17.3,17.3,66,0.00,OVC,,0.00,WeatherDisplay:10.37,2013-08-02 14:27:00,
2013-08-02 10:32:00,76.8,65.0,29.83,NNW,347,10.4,10.4,67,0.00,OVC,,0.00,WeatherDisplay:10.37,2013-08-02 14:32:00,
2013-08-02 10:37:00,77.2,65.0,29.83,NW,316,15.0,15.0,66,0.00,OVC,,0.00,WeatherDisplay:10.37,2013-08-02 14:37:00,
2013-08-02 10:42:00,77.1,64.0,29.83,NNW,341,14.0,14.0,64,0.00,OVC,,0.00,WeatherDisplay:10.37,2013-08-02 14:42:00,
2013-08-02 10:47:00,77.2,64.1,29.83,WNW,302,11.5,11.5,64,0.00,OVC,,0.00,WeatherDisplay:10.37,2013-08-02 14:47:00,
2013-08-02 10:52:00,77.7,63.6,29.83,NW,319,15.0,15.0,62,0.00,OVC,,0.00,WeatherDisplay:10.37,2013-08-02 14:52:00,
2013-08-02 10:57:00,77.7,62.7,29.83,North,350,12.7,12.7,60,0.00,OVC,,0.00,WeatherDisplay:10.37,2013-08-02 14:57:00,
2013-08-02 11:02:00,77.6,62.6,29.83,North,355,11.5,11.5,60,0.00,SCT,,0.00,WeatherDisplay:10.37,2013-08-02 15:02:00,
2013-08-02 11:07:00,78.2,64.1,29.83,WNW,294,11.5,11.5,62,0.00,SCT,,0.00,WeatherDisplay:10.37,2013-08-02 15:07:00,
2013-08-02 11:12:00,78.3,63.7,29.84,NNW,330,11.5,11.5,61,0.00,SCT,,0.00,WeatherDisplay:10.37,2013-08-02 15:12:00,
2013-08-02 11:17:00,78.6,64.5,29.84,NW,305,5.8,5.8,62,0.00,SCT,,0.00,WeatherDisplay:10.37,2013-08-02 15:17:00,
2013-08-02 11:22:00,79.1,64.0,29.84,NNW,331,13.0,13.0,60,0.00,SCT,,0.00,WeatherDisplay:10.37,2013-08-02 15:22:00,
2013-08-02 11:27:00,78.6,63.6,29.84,NW,306,11.5,11.5,60,0.00,SCT,,0.00,WeatherDisplay:10.37,2013-08-02 15:27:00,
2013-08-02 11:32:00,78.8,64.2,29.84,North,355,10.4,10.4,61,0.00,SCT,,0.00,WeatherDisplay:10.37,2013-08-02 15:32:00,
2013-08-02 11:37:00,79.0,63.4,29.84,NNW,332,10.4,10.4,59,0.00,SCT,,0.00,WeatherDisplay:10.37,2013-08-02 15:37:00,
2013-08-02 11:42:00,79.6,64.5,29.83,NW,304,4.6,4.6,60,0.00,SCT,,0.00,WeatherDisplay:10.37,2013-08-02 15:42:00,
2013-08-02 11:47:00,80.6,64.0,29.83,WNW,300,11.5,11.5,57,0.00,SCT,,0.00,WeatherDisplay:10.37,2013-08-02 15:47:00,
2013-08-02 11:53:00,79.9,63.3,29.83,NW,309,10.4,10.4,57,0.00,SCT,,0.00,WeatherDisplay:10.37,2013-08-02 15:53:00,
2013-08-02 11:57:00,79.6,64.0,29.84,WNW,300,3.5,3.5,59,0.00,SCT,,0.00,WeatherDisplay:10.37,2013-08-02 15:57:00,
2013-08-02 12:03:00,79.7,64.6,29.83,NW,304,9.0,9.0,60,0.00,SCT,,0.00,WeatherDisplay:10.37,2013-08-02 16:03:00,
2013-08-02 12:08:00,78.8,65.1,29.83,WSW,249,5.8,7.1,63,0.00,SCT,,0.00,WeatherDisplay:10.37,2013-08-02 16:08:00,
2013-08-02 12:13:00,77.3,67.2,29.83,WSW,250,11.5,11.5,71,0.00,SCT,,0.00,WeatherDisplay:10.37,2013-08-02 16:13:00,
2013-08-02 12:18:00,75.5,67.4,29.83,SW,225,13.8,13.8,76,0.00,SCT,,0.00,WeatherDisplay:10.37,2013-08-02 16:18:00,
2013-08-02 12:23:00,74.8,67.5,29.83,West,261,13.8,13.8,78,0.00,SCT,,0.00,WeatherDisplay:10.37,2013-08-02 16:23:00,
2013-08-02 12:28:00,75.0,67.7,29.83,SW,229,12.7,12.7,78,0.00,SCT,,0.00,WeatherDisplay:10.37,2013-08-02 16:28:00,
2013-08-02 12:32:00,75.5,67.8,29.83,WSW,252,16.0,16.0,77,0.00,SCT,,0.00,WeatherDisplay:10.37,2013-08-02 16:32:00,
2013-08-02 12:38:00,75.3,67.6,29.83,WSW,244,16.1,16.1,77,0.00,SCT,,0.00,WeatherDisplay:10.37,2013-08-02 16:38:00,
2013-08-02 12:43:00,75.3,68.0,29.83,SW,234,17.3,17.3,78,0.00,SCT,,0.00,WeatherDisplay:10.37,2013-08-02 16:43:00,
2013-08-02 12:48:00,75.8,68.1,29.83,SW,232,15.0,15.0,77,0.00,SCT,,0.00,WeatherDisplay:10.37,2013-08-02 16:48:00,
2013-08-02 12:53:00,75.8,68.8,29.83,WSW,238,17.3,17.3,79,0.00,SCT,,0.00,WeatherDisplay:10.37,2013-08-02 16:53:00,
2013-08-02 12:57:00,75.1,68.1,29.83,SW,231,19.6,19.6,79,0.00,SCT,,0.00,WeatherDisplay:10.37,2013-08-02 16:57:00,
2013-08-02 13:03:00,74.7,68.1,29.83,WSW,238,19.6,19.6,80,0.00,SCT,,0.00,WeatherDisplay:10.37,2013-08-02 17:03:00,
2013-08-02 13:07:00,74.9,68.7,29.83,West,259,15.0,15.0,81,0.00,SCT,,0.00,WeatherDisplay:10.37,2013-08-02 17:07:00,
2013-08-02 13:13:00,75.0,68.8,29.83,SW,216,13.8,13.8,81,0.00,SCT,,0.00,WeatherDisplay:10.37,2013-08-02 17:13:00,
2013-08-02 13:18:00,75.2,68.6,29.83,WSW,256,16.1,16.1,80,0.00,SCT,,0.00,WeatherDisplay:10.37,2013-08-02 17:18:00,
2013-08-02 13:23:00,75.2,68.2,29.83,WSW,244,17.3,17.3,79,0.00,SCT,,0.00,WeatherDisplay:10.37,2013-08-02 17:23:00,
2013-08-02 13:28:00,75.2,68.6,29.83,SW,223,17.3,17.3,80,0.00,SCT,,0.00,WeatherDisplay:10.37,2013-08-02 17:28:00,
2013-08-02 13:33:00,75.3,68.7,29.83,WSW,254,15.0,15.0,80,0.00,SCT,,0.00,WeatherDisplay:10.37,2013-08-02 17:33:00,
2013-08-02 13:38:00,75.8,69.2,29.83,WSW,241,16.1,16.1,80,0.00,SCT,,0.00,WeatherDisplay:10.37,2013-08-02 17:38:00,
2013-08-02 13:43:00,75.7,69.1,29.83,West,268,15.0,15.0,80,0.00,SCT,,0.00,WeatherDisplay:10.37,2013-08-02 17:43:00,
2013-08-02 13:48:00,75.9,68.9,29.83,WSW,242,16.1,16.1,79,0.00,SCT,,0.00,WeatherDisplay:10.37,2013-08-02 17:48:00,
2013-08-02 13:53:00,76.3,68.9,29.83,West,262,13.8,13.8,78,0.00,SCT,,0.00,WeatherDisplay:10.37,2013-08-02 17:53:00,
2013-08-02 13:58:00,76.5,68.7,29.83,SW,230,16.1,16.1,77,0.00,SCT,,0.00,WeatherDisplay:10.37,2013-08-02 17:58:00,
2013-08-02 14:02:00,75.7,68.4,29.83,WSW,247,19.6,19.6,78,0.00,SCT,,0.00,WeatherDisplay:10.37,2013-08-02 18:02:00,
2013-08-02 14:08:00,75.7,68.4,29.82,SW,229,17.3,17.3,78,0.00,SCT,,0.00,WeatherDisplay:10.37,2013-08-02 18:08:00,
2013-08-02 14:13:00,75.5,68.2,29.82,WSW,258,16.1,16.1,78,0.00,SCT,,0.00,WeatherDisplay:10.37,2013-08-02 18:13:00,
2013-08-02 14:18:00,75.8,67.7,29.82,WSW,248,18.4,18.4,76,0.00,SCT,,0.00,WeatherDisplay:10.37,2013-08-02 18:18:00,
2013-08-02 14:23:00,75.5,67.8,29.82,WSW,248,17.3,17.3,77,0.00,SCT,,0.00,WeatherDisplay:10.37,2013-08-02 18:23:00,
2013-08-02 14:28:00,75.4,67.7,29.83,WSW,252,21.0,21.0,77,0.00,SCT,,0.00,WeatherDisplay:10.37,2013-08-02 18:28:00,
2013-08-02 14:33:00,75.5,67.4,29.82,SW,236,18.4,18.4,76,0.00,SCT,,0.00,WeatherDisplay:10.37,2013-08-02 18:33:00,
2013-08-02 14:38:00,75.7,68.0,29.82,WSW,243,15.0,15.0,77,0.00,SCT,,0.00,WeatherDisplay:10.37,2013-08-02 18:38:00,
2013-08-02 14:43:00,75.7,68.0,29.82,SW,231,16.1,16.1,77,0.00,SCT,,0.00,WeatherDisplay:10.37,2013-08-02 18:43:00,
2013-08-02 14:48:00,76.7,68.6,29.83,SW,233,15.0,15.0,76,0.00,SCT,,0.00,WeatherDisplay:10.37,2013-08-02 18:48:00,
2013-08-02 14:53:00,76.9,68.8,29.83,WSW,242,11.5,11.5,76,0.00,SCT,,0.00,WeatherDisplay:10.37,2013-08-02 18:53:00,
2013-08-02 14:58:00,76.7,68.6,29.83,SW,216,13.8,13.8,76,0.00,SCT,,0.00,WeatherDisplay:10.37,2013-08-02 18:58:00,
2013-08-02 15:03:00,76.9,68.4,29.83,SW,232,14.0,14.0,75,0.00,SCT,,0.00,WeatherDisplay:10.37,2013-08-02 19:03:00,
2013-08-02 15:08:00,77.1,68.2,29.83,SW,229,16.1,16.1,74,0.00,SCT,,0.00,WeatherDisplay:10.37,2013-08-02 19:08:00,
2013-08-02 15:13:00,77.2,68.3,29.83,SW,235,16.0,16.0,74,0.00,SCT,,0.00,WeatherDisplay:10.37,2013-08-02 19:13:00,
2013-08-02 15:18:00,77.4,68.1,29.83,SW,223,11.5,11.5,73,0.00,SCT,,0.00,WeatherDisplay:10.37,2013-08-02 19:18:00,
2013-08-02 15:23:00,77.6,68.3,29.83,WSW,250,13.8,13.8,73,0.00,SCT,,0.00,WeatherDisplay:10.37,2013-08-02 19:23:00,
2013-08-02 15:28:00,77.0,67.7,29.83,West,265,16.1,16.1,73,0.00,SCT,,0.00,WeatherDisplay:10.37,2013-08-02 19:28:00,
2013-08-02 15:33:00,76.8,67.9,29.83,WSW,245,16.1,16.1,74,0.00,SCT,,0.00,WeatherDisplay:10.37,2013-08-02 19:33:00,
2013-08-02 15:38:00,77.0,67.3,29.83,WSW,254,18.4,18.4,72,0.00,SCT,,0.00,WeatherDisplay:10.37,2013-08-02 19:38:00,
2013-08-02 15:43:00,77.0,67.3,29.82,WSW,252,16.1,16.1,72,0.00,SCT,,0.00,WeatherDisplay:10.37,2013-08-02 19:43:00,
2013-08-02 15:48:00,77.2,67.1,29.82,WSW,254,15.0,15.0,71,0.00,SCT,,0.00,WeatherDisplay:10.37,2013-08-02 19:48:00,
2013-08-02 15:53:00,77.1,67.8,29.82,WSW,254,15.0,15.0,73,0.00,SCT,,0.00,WeatherDisplay:10.37,2013-08-02 19:53:00,
2013-08-02 15:58:00,76.9,67.6,29.83,West,263,16.1,16.1,73,0.00,SCT,,0.00,WeatherDisplay:10.37,2013-08-02 19:58:00,
2013-08-02 16:03:00,76.8,67.9,29.82,WSW,244,10.4,10.4,74,0.00,SCT,,0.00,WeatherDisplay:10.37,2013-08-02 20:03:00,
2013-08-02 16:08:00,77.6,68.3,29.82,WSW,247,12.7,12.7,73,0.00,SCT,,0.00,WeatherDisplay:10.37,2013-08-02 20:08:00,
2013-08-02 16:13:00,77.4,67.3,29.82,SW,229,16.1,16.1,71,0.00,SCT,,0.00,WeatherDisplay:10.37,2013-08-02 20:13:00,
2013-08-02 16:18:00,77.2,67.5,29.82,WSW,242,11.5,11.5,72,0.00,SCT,,0.00,WeatherDisplay:10.37,2013-08-02 20:18:00,
2013-08-02 16:23:00,77.8,68.0,29.81,WSW,249,11.5,11.5,72,0.00,SCT,,0.00,WeatherDisplay:10.37,2013-08-02 20:23:00,
2013-08-02 16:28:00,77.3,67.2,29.82,WSW,240,12.7,12.7,71,0.00,SCT,,0.00,WeatherDisplay:10.37,2013-08-02 20:28:00,
2013-08-02 16:33:00,77.0,67.3,29.81,SW,234,13.8,13.8,72,0.00,SCT,,0.00,WeatherDisplay:10.37,2013-08-02 20:33:00,
2013-08-02 16:38:00,76.8,67.1,29.81,SW,223,15.0,15.0,72,0.00,SCT,,0.00,WeatherDisplay:10.37,2013-08-02 20:38:00,
2013-08-02 16:43:00,76.7,67.0,29.81,WSW,254,12.7,12.7,72,0.00,SCT,,0.00,WeatherDisplay:10.37,2013-08-02 20:43:00,
2013-08-02 16:48:00,76.6,67.3,29.81,WSW,249,14.0,14.0,73,0.00,SCT,,0.00,WeatherDisplay:10.37,2013-08-02 20:48:00,
2013-08-02 16:53:00,76.4,67.9,29.81,SW,234,15.0,15.0,75,0.00,SCT,,0.00,WeatherDisplay:10.37,2013-08-02 20:53:00,
2013-08-02 16:58:00,76.5,67.6,29.82,SW,229,13.8,13.8,74,0.00,SCT,,0.00,WeatherDisplay:10.37,2013-08-02 20:58:00,
2013-08-02 17:03:00,76.4,67.9,29.81,WSW,246,13.8,13.8,75,0.00,CLR,,0.00,WeatherDisplay:10.37,2013-08-02 21:03:00,
2013-08-02 17:08:00,77.0,68.1,29.81,WSW,237,10.4,10.4,74,0.00,CLR,,0.00,WeatherDisplay:10.37,2013-08-02 21:08:00,
2013-08-02 17:13:00,77.5,68.2,29.81,SW,228,10.0,10.0,73,0.00,CLR,,0.00,WeatherDisplay:10.37,2013-08-02 21:13:00,
2013-08-02 17:18:00,76.9,67.2,29.82,WSW,254,13.8,13.8,72,0.00,CLR,,0.00,WeatherDisplay:10.37,2013-08-02 21:18:00,
2013-08-02 17:23:00,76.6,67.3,29.82,WSW,247,12.0,12.0,73,0.00,CLR,,0.00,WeatherDisplay:10.37,2013-08-02 21:23:00,
2013-08-02 17:28:00,76.8,67.1,29.82,WSW,258,13.8,13.8,72,0.00,CLR,,0.00,WeatherDisplay:10.37,2013-08-02 21:28:00,
2013-08-02 17:33:00,77.0,66.9,29.82,WSW,238,15.0,15.0,71,0.00,CLR,,0.00,WeatherDisplay:10.37,2013-08-02 21:33:00,
2013-08-02 17:38:00,77.3,66.7,29.82,WSW,244,16.1,16.1,70,0.00,CLR,,0.00,WeatherDisplay:10.37,2013-08-02 21:38:00,
2013-08-02 17:43:00,77.3,67.2,29.82,WSW,254,14.0,14.0,71,0.00,CLR,,0.00,WeatherDisplay:10.37,2013-08-02 21:43:00,
2013-08-02 17:48:00,76.9,67.2,29.82,WSW,239,11.5,11.5,72,0.00,CLR,,0.00,WeatherDisplay:10.37,2013-08-02 21:48:00,
2013-08-02 17:53:00,77.4,66.0,29.81,SW,232,16.1,16.1,68,0.00,CLR,,0.00,WeatherDisplay:10.37,2013-08-02 21:53:00,
2013-08-02 17:58:00,78.0,65.3,29.81,WSW,249,17.3,17.3,65,0.00,CLR,,0.00,WeatherDisplay:10.37,2013-08-02 21:58:00,
2013-08-02 18:03:00,77.7,65.9,29.81,WSW,248,12.7,12.7,67,0.00,SCT,,0.00,WeatherDisplay:10.37,2013-08-02 22:03:00,
2013-08-02 18:08:00,77.6,65.3,29.81,SW,230,13.0,13.0,66,0.00,SCT,,0.00,WeatherDisplay:10.37,2013-08-02 22:08:00,
2013-08-02 18:13:00,77.9,64.7,29.82,WSW,249,11.5,11.5,64,0.00,SCT,,0.00,WeatherDisplay:10.37,2013-08-02 22:13:00,